sensor_id;sensor_type;location;lat;lon;timestamp;noise_LAeq;noise_LA_min;noise_LA_max;noise_LA01;noise_LA95
71020;Laerm;58902;51.436;5.980;2023-06-22T00:00:08;39.92;30.48;53.30;;
71020;Laerm;58902;51.436;5.980;2023-06-22T00:00:22;32.22;30.22;40.40;;
71020;Laerm;58902;51.436;5.980;2023-06-22T00:00:32;32.30;30.71;34.63;;
71020;Laerm;58902;51.436;5.980;2023-06-22T00:00:42;31.87;30.03;34.06;;
71020;Laerm;58902;51.436;5.980;2023-06-22T00:00:53;31.66;30.01;33.49;;
71020;Laerm;58902;51.436;5.980;2023-06-22T00:01:04;32.04;29.98;34.61;;
71020;Laerm;58902;51.436;5.980;2023-06-22T00:01:14;32.44;30.65;33.86;;
71020;Laerm;58902;51.436;5.980;2023-06-22T00:01:25;33.21;31.05;48.34;;
71020;Laerm;58902;51.436;5.980;2023-06-22T00:01:35;32.84;30.99;41.59;;
71020;Laerm;58902;51.436;5.980;2023-06-22T00:01:45;32.43;30.77;35.59;;
71020;Laerm;58902;51.436;5.980;2023-06-22T00:01:56;32.60;31.03;39.08;;
71020;Laerm;58902;51.436;5.980;2023-06-22T00:02:06;32.37;30.41;34.61;;
71020;Laerm;58902;51.436;5.980;2023-06-22T00:02:16;32.36;31.02;35.06;;
71020;Laerm;58902;51.436;5.980;2023-06-22T00:02:27;32.42;30.56;34.12;;
71020;Laerm;58902;51.436;5.980;2023-06-22T00:02:37;32.35;30.64;33.67;;
71020;Laerm;58902;51.436;5.980;2023-06-22T00:02:47;32.45;30.87;35.97;;
71020;Laerm;58902;51.436;5.980;2023-06-22T00:02:58;32.68;30.79;41.17;;
71020;Laerm;58902;51.436;5.980;2023-06-22T00:03:08;32.09;30.29;34.39;;
71020;Laerm;58902;51.436;5.980;2023-06-22T00:03:19;32.05;30.41;34.67;;
71020;Laerm;58902;51.436;5.980;2023-06-22T00:03:30;32.10;29.75;33.91;;
71020;Laerm;58902;51.436;5.980;2023-06-22T00:03:41;31.95;30.31;34.27;;
71020;Laerm;58902;51.436;5.980;2023-06-22T00:03:51;32.28;30.47;34.32;;
71020;Laerm;58902;51.436;5.980;2023-06-22T00:04:02;31.98;30.06;33.60;;
71020;Laerm;58902;51.436;5.980;2023-06-22T00:04:12;32.10;30.52;34.15;;
71020;Laerm;58902;51.436;5.980;2023-06-22T00:04:22;32.21;30.32;34.53;;
71020;Laerm;58902;51.436;5.980;2023-06-22T00:04:33;32.05;30.11;33.54;;
71020;Laerm;58902;51.436;5.980;2023-06-22T00:04:43;32.06;30.80;34.10;;
71020;Laerm;58902;51.436;5.980;2023-06-22T00:04:53;32.01;30.61;34.03;;
71020;Laerm;58902;51.436;5.980;2023-06-22T00:05:04;31.55;30.02;33.94;;
71020;Laerm;58902;51.436;5.980;2023-06-22T00:05:14;31.88;30.19;35.73;;
71020;Laerm;58902;51.436;5.980;2023-06-22T00:05:25;32.68;30.49;37.91;;
71020;Laerm;58902;51.436;5.980;2023-06-22T00:05:35;33.25;30.66;38.65;;
71020;Laerm;58902;51.436;5.980;2023-06-22T00:05:46;32.73;31.03;37.80;;
71020;Laerm;58902;51.436;5.980;2023-06-22T00:05:56;32.13;30.39;33.60;;
71020;Laerm;58902;51.436;5.980;2023-06-22T00:06:07;31.61;29.90;33.33;;
71020;Laerm;58902;51.436;5.980;2023-06-22T00:06:17;31.65;30.38;33.73;;
71020;Laerm;58902;51.436;5.980;2023-06-22T00:06:27;31.76;30.32;34.42;;
71020;Laerm;58902;51.436;5.980;2023-06-22T00:06:38;31.69;30.23;33.42;;
71020;Laerm;58902;51.436;5.980;2023-06-22T00:06:48;31.72;30.47;33.03;;
71020;Laerm;58902;51.436;5.980;2023-06-22T00:06:59;31.61;30.27;33.30;;
71020;Laerm;58902;51.436;5.980;2023-06-22T00:07:09;31.45;29.90;34.79;;
71020;Laerm;58902;51.436;5.980;2023-06-22T00:07:20;31.69;29.49;33.73;;
71020;Laerm;58902;51.436;5.980;2023-06-22T00:07:30;32.33;30.23;40.26;;
71020;Laerm;58902;51.436;5.980;2023-06-22T00:07:40;32.58;30.29;38.97;;
71020;Laerm;58902;51.436;5.980;2023-06-22T00:07:51;32.88;30.86;37.67;;
71020;Laerm;58902;51.436;5.980;2023-06-22T00:08:02;33.39;30.84;38.67;;
71020;Laerm;58902;51.436;5.980;2023-06-22T00:08:14;33.20;30.72;36.96;;
71020;Laerm;58902;51.436;5.980;2023-06-22T00:08:25;33.42;30.90;42.30;;
71020;Laerm;58902;51.436;5.980;2023-06-22T00:08:35;32.61;30.35;35.88;;
71020;Laerm;58902;51.436;5.980;2023-06-22T00:08:46;32.92;30.48;38.81;;
71020;Laerm;58902;51.436;5.980;2023-06-22T00:08:56;32.46;30.65;35.70;;
71020;Laerm;58902;51.436;5.980;2023-06-22T00:09:07;32.49;30.41;36.35;;
71020;Laerm;58902;51.436;5.980;2023-06-22T00:09:17;32.12;30.27;35.46;;
71020;Laerm;58902;51.436;5.980;2023-06-22T00:09:27;31.88;29.95;33.82;;
71020;Laerm;58902;51.436;5.980;2023-06-22T00:09:38;32.81;30.89;37.16;;
71020;Laerm;58902;51.436;5.980;2023-06-22T00:09:48;33.02;30.61;35.59;;
71020;Laerm;58902;51.436;5.980;2023-06-22T00:09:58;33.99;31.15;40.83;;
71020;Laerm;58902;51.436;5.980;2023-06-22T00:10:09;39.14;31.94;41.65;;
71020;Laerm;58902;51.436;5.980;2023-06-22T00:10:22;41.26;40.41;42.08;;
71020;Laerm;58902;51.436;5.980;2023-06-22T00:10:32;41.59;40.76;42.47;;
71020;Laerm;58902;51.436;5.980;2023-06-22T00:10:43;40.91;39.49;41.86;;
71020;Laerm;58902;51.436;5.980;2023-06-22T00:10:53;40.59;39.53;41.35;;
71020;Laerm;58902;51.436;5.980;2023-06-22T00:11:04;41.03;39.88;41.87;;
71020;Laerm;58902;51.436;5.980;2023-06-22T00:11:14;41.26;40.50;41.90;;
71020;Laerm;58902;51.436;5.980;2023-06-22T00:11:24;38.66;30.93;42.27;;
71020;Laerm;58902;51.436;5.980;2023-06-22T00:11:35;32.67;31.01;36.56;;
71020;Laerm;58902;51.436;5.980;2023-06-22T00:11:46;32.90;31.21;34.91;;
71020;Laerm;58902;51.436;5.980;2023-06-22T00:11:56;33.64;31.47;35.59;;
71020;Laerm;58902;51.436;5.980;2023-06-22T00:12:07;33.88;31.70;39.89;;
71020;Laerm;58902;51.436;5.980;2023-06-22T00:12:17;32.89;31.12;34.83;;
71020;Laerm;58902;51.436;5.980;2023-06-22T00:12:27;32.95;30.38;39.08;;
71020;Laerm;58902;51.436;5.980;2023-06-22T00:12:38;32.53;30.41;36.82;;
71020;Laerm;58902;51.436;5.980;2023-06-22T00:12:48;32.47;29.96;35.55;;
71020;Laerm;58902;51.436;5.980;2023-06-22T00:12:58;32.41;30.39;35.13;;
71020;Laerm;58902;51.436;5.980;2023-06-22T00:13:09;32.66;30.83;34.28;;
71020;Laerm;58902;51.436;5.980;2023-06-22T00:13:21;32.65;30.56;35.39;;
71020;Laerm;58902;51.436;5.980;2023-06-22T00:13:31;31.77;29.21;34.01;;
71020;Laerm;58902;51.436;5.980;2023-06-22T00:13:41;31.44;29.85;33.11;;
71020;Laerm;58902;51.436;5.980;2023-06-22T00:13:52;31.75;29.29;36.49;;
71020;Laerm;58902;51.436;5.980;2023-06-22T00:14:02;31.97;30.22;41.97;;
71020;Laerm;58902;51.436;5.980;2023-06-22T00:14:13;31.58;29.71;34.94;;
71020;Laerm;58902;51.436;5.980;2023-06-22T00:14:23;31.27;29.43;34.90;;
71020;Laerm;58902;51.436;5.980;2023-06-22T00:14:34;32.81;30.23;38.16;;
71020;Laerm;58902;51.436;5.980;2023-06-22T00:14:44;32.85;29.99;36.31;;
71020;Laerm;58902;51.436;5.980;2023-06-22T00:14:54;33.17;30.54;37.14;;
71020;Laerm;58902;51.436;5.980;2023-06-22T00:15:05;33.11;30.46;35.95;;
71020;Laerm;58902;51.436;5.980;2023-06-22T00:15:15;32.69;30.10;37.03;;
71020;Laerm;58902;51.436;5.980;2023-06-22T00:15:26;32.45;30.41;35.13;;
71020;Laerm;58902;51.436;5.980;2023-06-22T00:15:36;32.67;30.65;37.14;;
71020;Laerm;58902;51.436;5.980;2023-06-22T00:15:47;32.34;30.17;34.87;;
71020;Laerm;58902;51.436;5.980;2023-06-22T00:15:58;32.83;30.15;36.22;;
71020;Laerm;58902;51.436;5.980;2023-06-22T00:16:08;33.86;31.12;38.96;;
71020;Laerm;58902;51.436;5.980;2023-06-22T00:16:18;32.81;30.60;35.54;;
71020;Laerm;58902;51.436;5.980;2023-06-22T00:16:29;32.09;29.81;36.55;;
71020;Laerm;58902;51.436;5.980;2023-06-22T00:16:40;31.47;29.56;33.35;;
71020;Laerm;58902;51.436;5.980;2023-06-22T00:16:52;31.67;29.95;33.43;;
71020;Laerm;58902;51.436;5.980;2023-06-22T00:17:07;32.32;30.29;34.25;;
71020;Laerm;58902;51.436;5.980;2023-06-22T00:17:17;32.32;30.53;34.65;;
71020;Laerm;58902;51.436;5.980;2023-06-22T00:17:28;32.30;30.83;33.95;;
71020;Laerm;58902;51.436;5.980;2023-06-22T00:17:38;31.92;30.28;33.64;;
71020;Laerm;58902;51.436;5.980;2023-06-22T00:17:49;31.92;30.49;33.54;;
71020;Laerm;58902;51.436;5.980;2023-06-22T00:18:00;33.81;30.35;37.22;;
71020;Laerm;58902;51.436;5.980;2023-06-22T00:18:10;37.17;35.44;38.30;;
71020;Laerm;58902;51.436;5.980;2023-06-22T00:18:22;37.34;36.14;39.67;;
71020;Laerm;58902;51.436;5.980;2023-06-22T00:18:32;33.98;31.08;37.93;;
71020;Laerm;58902;51.436;5.980;2023-06-22T00:18:42;32.24;31.00;33.94;;
71020;Laerm;58902;51.436;5.980;2023-06-22T00:18:57;32.62;30.75;38.18;;
71020;Laerm;58902;51.436;5.980;2023-06-22T00:19:10;33.11;29.77;38.93;;
71020;Laerm;58902;51.436;5.980;2023-06-22T00:19:21;32.68;30.22;35.92;;
71020;Laerm;58902;51.436;5.980;2023-06-22T00:19:32;32.70;30.50;41.81;;
71020;Laerm;58902;51.436;5.980;2023-06-22T00:19:46;31.09;29.73;33.55;;
71020;Laerm;58902;51.436;5.980;2023-06-22T00:19:57;31.00;29.45;35.37;;
71020;Laerm;58902;51.436;5.980;2023-06-22T00:20:08;30.83;29.61;32.52;;
71020;Laerm;58902;51.436;5.980;2023-06-22T00:20:20;30.72;29.43;33.13;;
71020;Laerm;58902;51.436;5.980;2023-06-22T00:20:30;30.42;29.08;32.09;;
71020;Laerm;58902;51.436;5.980;2023-06-22T00:20:42;30.67;29.43;32.70;;
71020;Laerm;58902;51.436;5.980;2023-06-22T00:20:53;30.83;29.36;33.95;;
71020;Laerm;58902;51.436;5.980;2023-06-22T00:21:07;31.52;29.41;48.66;;
71020;Laerm;58902;51.436;5.980;2023-06-22T00:21:18;30.83;29.31;33.09;;
71020;Laerm;58902;51.436;5.980;2023-06-22T00:21:30;30.72;29.04;35.81;;
71020;Laerm;58902;51.436;5.980;2023-06-22T00:21:41;30.68;29.52;33.07;;
71020;Laerm;58902;51.436;5.980;2023-06-22T00:21:52;33.79;30.20;38.89;;
71020;Laerm;58902;51.436;5.980;2023-06-22T00:22:03;38.52;31.68;42.73;;
71020;Laerm;58902;51.436;5.980;2023-06-22T00:22:13;31.47;29.83;33.95;;
71020;Laerm;58902;51.436;5.980;2023-06-22T00:22:24;30.88;29.40;32.64;;
71020;Laerm;58902;51.436;5.980;2023-06-22T00:22:38;30.99;28.99;34.05;;
71020;Laerm;58902;51.436;5.980;2023-06-22T00:22:49;30.75;29.33;32.38;;
71020;Laerm;58902;51.436;5.980;2023-06-22T00:23:00;30.72;29.34;33.42;;
71020;Laerm;58902;51.436;5.980;2023-06-22T00:23:10;30.71;29.26;36.92;;
71020;Laerm;58902;51.436;5.980;2023-06-22T00:23:20;30.65;29.32;32.32;;
71020;Laerm;58902;51.436;5.980;2023-06-22T00:23:31;30.61;29.03;34.01;;
71020;Laerm;58902;51.436;5.980;2023-06-22T00:23:44;30.62;29.04;34.05;;
71020;Laerm;58902;51.436;5.980;2023-06-22T00:23:54;30.85;29.43;36.48;;
71020;Laerm;58902;51.436;5.980;2023-06-22T00:24:05;30.98;29.33;33.79;;
71020;Laerm;58902;51.436;5.980;2023-06-22T00:24:16;31.19;29.57;33.64;;
71020;Laerm;58902;51.436;5.980;2023-06-22T00:24:27;31.79;30.13;33.84;;
71020;Laerm;58902;51.436;5.980;2023-06-22T00:24:37;31.96;30.00;35.63;;
71020;Laerm;58902;51.436;5.980;2023-06-22T00:24:47;32.04;30.36;34.24;;
71020;Laerm;58902;51.436;5.980;2023-06-22T00:24:58;31.85;30.44;36.87;;
71020;Laerm;58902;51.436;5.980;2023-06-22T00:25:08;32.41;30.50;33.79;;
71020;Laerm;58902;51.436;5.980;2023-06-22T00:25:19;31.86;30.32;33.51;;
71020;Laerm;58902;51.436;5.980;2023-06-22T00:25:29;31.82;30.34;33.69;;
71020;Laerm;58902;51.436;5.980;2023-06-22T00:25:40;31.83;29.92;33.70;;
71020;Laerm;58902;51.436;5.980;2023-06-22T00:25:51;32.14;30.45;34.41;;
71020;Laerm;58902;51.436;5.980;2023-06-22T00:26:02;32.32;30.47;37.97;;
71020;Laerm;58902;51.436;5.980;2023-06-22T00:26:12;32.19;30.49;33.75;;
71020;Laerm;58902;51.436;5.980;2023-06-22T00:26:23;32.04;30.41;33.78;;
71020;Laerm;58902;51.436;5.980;2023-06-22T00:26:34;35.77;30.56;41.72;;
71020;Laerm;58902;51.436;5.980;2023-06-22T00:26:45;37.02;32.07;40.56;;
71020;Laerm;58902;51.436;5.980;2023-06-22T00:26:55;33.80;31.42;35.96;;
71020;Laerm;58902;51.436;5.980;2023-06-22T00:27:06;33.73;31.85;38.48;;
71020;Laerm;58902;51.436;5.980;2023-06-22T00:27:16;34.31;31.61;39.22;;
71020;Laerm;58902;51.436;5.980;2023-06-22T00:27:26;67.83;35.90;74.98;;
71020;Laerm;58902;51.436;5.980;2023-06-22T00:27:37;67.65;64.81;71.58;;
71020;Laerm;58902;51.436;5.980;2023-06-22T00:27:47;66.97;47.79;73.26;;
71020;Laerm;58902;51.436;5.980;2023-06-22T00:27:58;45.06;39.10;51.14;;
71020;Laerm;58902;51.436;5.980;2023-06-22T00:28:09;38.31;35.51;42.04;;
71020;Laerm;58902;51.436;5.980;2023-06-22T00:28:19;35.92;33.90;38.87;;
71020;Laerm;58902;51.436;5.980;2023-06-22T00:28:30;35.40;33.16;39.85;;
71020;Laerm;58902;51.436;5.980;2023-06-22T00:28:40;35.26;32.80;38.51;;
71020;Laerm;58902;51.436;5.980;2023-06-22T00:28:51;33.50;31.33;35.60;;
71020;Laerm;58902;51.436;5.980;2023-06-22T00:29:01;33.72;31.22;44.59;;
71020;Laerm;58902;51.436;5.980;2023-06-22T00:29:12;32.83;31.04;36.39;;
71020;Laerm;58902;51.436;5.980;2023-06-22T00:29:22;32.77;30.73;35.00;;
71020;Laerm;58902;51.436;5.980;2023-06-22T00:29:32;32.39;30.64;35.80;;
71020;Laerm;58902;51.436;5.980;2023-06-22T00:29:43;31.52;29.67;36.39;;
71020;Laerm;58902;51.436;5.980;2023-06-22T00:29:53;31.07;29.62;33.08;;
71020;Laerm;58902;51.436;5.980;2023-06-22T00:30:04;30.56;29.24;32.53;;
71020;Laerm;58902;51.436;5.980;2023-06-22T00:30:15;30.42;28.73;31.95;;
71020;Laerm;58902;51.436;5.980;2023-06-22T00:30:26;30.76;29.39;33.65;;
71020;Laerm;58902;51.436;5.980;2023-06-22T00:30:36;31.48;29.96;33.28;;
71020;Laerm;58902;51.436;5.980;2023-06-22T00:30:48;31.68;30.26;33.30;;
71020;Laerm;58902;51.436;5.980;2023-06-22T00:30:58;31.24;29.27;33.04;;
71020;Laerm;58902;51.436;5.980;2023-06-22T00:31:09;38.22;28.70;54.45;;
71020;Laerm;58902;51.436;5.980;2023-06-22T00:31:22;29.98;28.56;31.47;;
71020;Laerm;58902;51.436;5.980;2023-06-22T00:31:32;29.79;28.34;31.35;;
71020;Laerm;58902;51.436;5.980;2023-06-22T00:31:43;29.85;28.63;31.35;;
71020;Laerm;58902;51.436;5.980;2023-06-22T00:31:53;29.94;28.90;31.76;;
71020;Laerm;58902;51.436;5.980;2023-06-22T00:32:03;30.21;28.86;34.53;;
71020;Laerm;58902;51.436;5.980;2023-06-22T00:32:14;30.22;28.98;31.98;;
71020;Laerm;58902;51.436;5.980;2023-06-22T00:32:24;31.04;29.30;32.89;;
71020;Laerm;58902;51.436;5.980;2023-06-22T00:32:35;30.74;29.18;35.11;;
71020;Laerm;58902;51.436;5.980;2023-06-22T00:32:45;31.49;29.80;33.95;;
71020;Laerm;58902;51.436;5.980;2023-06-22T00:32:56;31.19;29.32;33.74;;
71020;Laerm;58902;51.436;5.980;2023-06-22T00:33:06;31.39;29.87;33.98;;
71020;Laerm;58902;51.436;5.980;2023-06-22T00:33:17;32.39;29.33;38.44;;
71020;Laerm;58902;51.436;5.980;2023-06-22T00:33:28;31.24;29.44;33.28;;
71020;Laerm;58902;51.436;5.980;2023-06-22T00:33:38;31.40;29.82;34.32;;
71020;Laerm;58902;51.436;5.980;2023-06-22T00:33:48;31.34;29.57;33.99;;
71020;Laerm;58902;51.436;5.980;2023-06-22T00:34:00;32.62;29.79;38.55;;
71020;Laerm;58902;51.436;5.980;2023-06-22T00:34:11;31.52;30.41;33.96;;
71020;Laerm;58902;51.436;5.980;2023-06-22T00:34:21;31.26;29.58;33.15;;
71020;Laerm;58902;51.436;5.980;2023-06-22T00:34:32;35.60;30.26;37.48;;
71020;Laerm;58902;51.436;5.980;2023-06-22T00:34:42;36.26;34.37;37.54;;
71020;Laerm;58902;51.436;5.980;2023-06-22T00:34:52;33.79;30.52;37.82;;
71020;Laerm;58902;51.436;5.980;2023-06-22T00:35:03;31.66;30.73;33.02;;
71020;Laerm;58902;51.436;5.980;2023-06-22T00:35:13;31.71;30.66;33.17;;
71020;Laerm;58902;51.436;5.980;2023-06-22T00:35:24;32.51;30.74;37.37;;
71020;Laerm;58902;51.436;5.980;2023-06-22T00:35:39;33.19;30.86;37.61;;
71020;Laerm;58902;51.436;5.980;2023-06-22T00:35:51;32.28;29.96;39.80;;
71020;Laerm;58902;51.436;5.980;2023-06-22T00:36:02;30.88;29.56;33.10;;
71020;Laerm;58902;51.436;5.980;2023-06-22T00:36:14;30.96;29.09;32.86;;
71020;Laerm;58902;51.436;5.980;2023-06-22T00:36:26;29.99;28.63;33.84;;
71020;Laerm;58902;51.436;5.980;2023-06-22T00:36:36;30.30;28.43;32.75;;
71020;Laerm;58902;51.436;5.980;2023-06-22T00:36:47;31.31;29.49;34.62;;
71020;Laerm;58902;51.436;5.980;2023-06-22T00:36:57;37.55;32.55;40.82;;
71020;Laerm;58902;51.436;5.980;2023-06-22T00:37:09;33.58;30.72;38.09;;
71020;Laerm;58902;51.436;5.980;2023-06-22T00:37:21;31.09;29.41;32.82;;
71020;Laerm;58902;51.436;5.980;2023-06-22T00:37:36;30.78;28.72;32.48;;
71020;Laerm;58902;51.436;5.980;2023-06-22T00:37:46;30.64;29.18;32.13;;
71020;Laerm;58902;51.436;5.980;2023-06-22T00:37:56;30.68;29.29;32.90;;
71020;Laerm;58902;51.436;5.980;2023-06-22T00:38:10;31.53;29.29;39.32;;
71020;Laerm;58902;51.436;5.980;2023-06-22T00:38:21;30.97;29.42;33.19;;
71020;Laerm;58902;51.436;5.980;2023-06-22T00:38:31;30.48;28.64;31.98;;
71020;Laerm;58902;51.436;5.980;2023-06-22T00:38:42;30.48;29.17;32.08;;
71020;Laerm;58902;51.436;5.980;2023-06-22T00:38:52;30.57;29.33;31.97;;
71020;Laerm;58902;51.436;5.980;2023-06-22T00:39:03;32.73;28.85;48.91;;
71020;Laerm;58902;51.436;5.980;2023-06-22T00:39:13;31.22;29.27;39.42;;
71020;Laerm;58902;51.436;5.980;2023-06-22T00:39:24;31.53;29.90;37.71;;
71020;Laerm;58902;51.436;5.980;2023-06-22T00:39:34;31.17;29.53;34.06;;
71020;Laerm;58902;51.436;5.980;2023-06-22T00:39:44;32.32;29.79;43.96;;
71020;Laerm;58902;51.436;5.980;2023-06-22T00:39:55;31.10;29.69;32.98;;
71020;Laerm;58902;51.436;5.980;2023-06-22T00:40:06;31.12;29.55;33.22;;
71020;Laerm;58902;51.436;5.980;2023-06-22T00:40:18;31.35;29.80;33.16;;
71020;Laerm;58902;51.436;5.980;2023-06-22T00:40:32;31.39;29.99;33.94;;
71020;Laerm;58902;51.436;5.980;2023-06-22T00:40:42;31.39;29.53;34.58;;
71020;Laerm;58902;51.436;5.980;2023-06-22T00:40:53;31.21;29.81;32.99;;
71020;Laerm;58902;51.436;5.980;2023-06-22T00:41:03;32.21;30.22;46.68;;
71020;Laerm;58902;51.436;5.980;2023-06-22T00:41:13;31.30;29.65;33.62;;
71020;Laerm;58902;51.436;5.980;2023-06-22T00:41:24;31.34;29.89;33.18;;
71020;Laerm;58902;51.436;5.980;2023-06-22T00:41:34;31.35;29.72;33.13;;
71020;Laerm;58902;51.436;5.980;2023-06-22T00:41:44;31.42;30.16;33.14;;
71020;Laerm;58902;51.436;5.980;2023-06-22T00:41:55;30.83;29.12;32.56;;
71020;Laerm;58902;51.436;5.980;2023-06-22T00:42:06;30.83;29.15;34.48;;
71020;Laerm;58902;51.436;5.980;2023-06-22T00:42:16;30.70;29.16;32.22;;
71020;Laerm;58902;51.436;5.980;2023-06-22T00:42:26;30.69;29.53;32.76;;
71020;Laerm;58902;51.436;5.980;2023-06-22T00:42:40;31.21;29.42;33.25;;
71020;Laerm;58902;51.436;5.980;2023-06-22T00:42:50;31.43;30.08;33.15;;
71020;Laerm;58902;51.436;5.980;2023-06-22T00:43:00;31.51;29.90;32.88;;
71020;Laerm;58902;51.436;5.980;2023-06-22T00:43:11;30.81;29.44;32.97;;
71020;Laerm;58902;51.436;5.980;2023-06-22T00:43:21;31.52;29.92;32.97;;
71020;Laerm;58902;51.436;5.980;2023-06-22T00:43:31;31.73;30.06;33.48;;
71020;Laerm;58902;51.436;5.980;2023-06-22T00:43:42;32.26;30.62;39.40;;
71020;Laerm;58902;51.436;5.980;2023-06-22T00:43:52;32.17;30.17;33.58;;
71020;Laerm;58902;51.436;5.980;2023-06-22T00:44:03;32.06;30.15;33.75;;
71020;Laerm;58902;51.436;5.980;2023-06-22T00:44:14;31.99;30.14;33.68;;
71020;Laerm;58902;51.436;5.980;2023-06-22T00:44:24;32.09;30.81;33.56;;
71020;Laerm;58902;51.436;5.980;2023-06-22T00:44:35;32.21;30.53;34.07;;
71020;Laerm;58902;51.436;5.980;2023-06-22T00:44:45;32.25;30.66;33.70;;
71020;Laerm;58902;51.436;5.980;2023-06-22T00:44:56;32.34;30.79;33.83;;
71020;Laerm;58902;51.436;5.980;2023-06-22T00:45:07;32.25;30.78;34.34;;
71020;Laerm;58902;51.436;5.980;2023-06-22T00:45:17;32.17;30.53;33.74;;
71020;Laerm;58902;51.436;5.980;2023-06-22T00:45:28;31.85;30.17;33.21;;
71020;Laerm;58902;51.436;5.980;2023-06-22T00:45:38;31.96;30.65;36.52;;
71020;Laerm;58902;51.436;5.980;2023-06-22T00:45:48;31.86;30.45;33.68;;
71020;Laerm;58902;51.436;5.980;2023-06-22T00:45:59;31.81;30.16;33.70;;
71020;Laerm;58902;51.436;5.980;2023-06-22T00:46:09;31.73;29.83;33.24;;
71020;Laerm;58902;51.436;5.980;2023-06-22T00:46:20;31.58;30.11;32.87;;
71020;Laerm;58902;51.436;5.980;2023-06-22T00:46:30;31.52;30.19;32.81;;
71020;Laerm;58902;51.436;5.980;2023-06-22T00:46:41;31.52;30.05;33.16;;
71020;Laerm;58902;51.436;5.980;2023-06-22T00:46:52;31.56;30.05;32.83;;
71020;Laerm;58902;51.436;5.980;2023-06-22T00:47:02;31.80;30.13;35.48;;
71020;Laerm;58902;51.436;5.980;2023-06-22T00:47:13;31.84;30.19;33.36;;
71020;Laerm;58902;51.436;5.980;2023-06-22T00:47:26;31.97;30.46;36.27;;
71020;Laerm;58902;51.436;5.980;2023-06-22T00:47:37;32.03;30.65;35.08;;
71020;Laerm;58902;51.436;5.980;2023-06-22T00:47:48;32.00;30.31;33.25;;
71020;Laerm;58902;51.436;5.980;2023-06-22T00:48:02;31.88;30.60;33.95;;
71020;Laerm;58902;51.436;5.980;2023-06-22T00:48:13;31.98;30.57;33.59;;
71020;Laerm;58902;51.436;5.980;2023-06-22T00:48:25;32.23;30.92;35.21;;
71020;Laerm;58902;51.436;5.980;2023-06-22T00:48:35;32.10;30.65;34.71;;
71020;Laerm;58902;51.436;5.980;2023-06-22T00:48:47;32.06;30.47;34.11;;
71020;Laerm;58902;51.436;5.980;2023-06-22T00:48:57;31.87;30.23;33.12;;
71020;Laerm;58902;51.436;5.980;2023-06-22T00:49:07;32.09;30.39;33.61;;
71020;Laerm;58902;51.436;5.980;2023-06-22T00:49:18;32.56;30.24;40.95;;
71020;Laerm;58902;51.436;5.980;2023-06-22T00:49:28;32.27;30.75;33.74;;
71020;Laerm;58902;51.436;5.980;2023-06-22T00:49:39;32.09;30.53;34.19;;
71020;Laerm;58902;51.436;5.980;2023-06-22T00:49:49;31.95;30.42;33.21;;
71020;Laerm;58902;51.436;5.980;2023-06-22T00:50:01;32.10;30.69;34.71;;
71020;Laerm;58902;51.436;5.980;2023-06-22T00:50:14;32.03;30.07;33.90;;
71020;Laerm;58902;51.436;5.980;2023-06-22T00:50:30;31.91;30.47;33.53;;
71020;Laerm;58902;51.436;5.980;2023-06-22T00:50:45;31.98;30.57;33.64;;
71020;Laerm;58902;51.436;5.980;2023-06-22T00:50:55;31.84;30.29;33.65;;
71020;Laerm;58902;51.436;5.980;2023-06-22T00:51:06;32.09;30.19;34.48;;
71020;Laerm;58902;51.436;5.980;2023-06-22T00:51:16;31.86;30.34;33.28;;
71020;Laerm;58902;51.436;5.980;2023-06-22T00:51:26;32.23;30.73;33.68;;
71020;Laerm;58902;51.436;5.980;2023-06-22T00:51:37;32.47;30.79;34.04;;
71020;Laerm;58902;51.436;5.980;2023-06-22T00:51:48;32.89;30.85;45.40;;
71020;Laerm;58902;51.436;5.980;2023-06-22T00:51:59;32.34;30.63;36.35;;
71020;Laerm;58902;51.436;5.980;2023-06-22T00:52:09;32.44;30.62;34.06;;
71020;Laerm;58902;51.436;5.980;2023-06-22T00:52:24;32.70;30.69;34.59;;
71020;Laerm;58902;51.436;5.980;2023-06-22T00:52:39;32.49;30.62;35.74;;
71020;Laerm;58902;51.436;5.980;2023-06-22T00:52:56;33.87;30.54;48.49;;
71020;Laerm;58902;51.436;5.980;2023-06-22T00:53:08;32.26;30.76;34.20;;
71020;Laerm;58902;51.436;5.980;2023-06-22T00:53:21;32.35;31.02;33.65;;
71020;Laerm;58902;51.436;5.980;2023-06-22T00:53:32;32.59;30.73;34.00;;
71020;Laerm;58902;51.436;5.980;2023-06-22T00:53:45;32.61;30.86;36.52;;
71020;Laerm;58902;51.436;5.980;2023-06-22T00:53:56;32.47;30.62;36.62;;
71020;Laerm;58902;51.436;5.980;2023-06-22T00:54:07;32.39;30.59;34.64;;
71020;Laerm;58902;51.436;5.980;2023-06-22T00:54:17;32.34;30.60;34.00;;
71020;Laerm;58902;51.436;5.980;2023-06-22T00:54:35;31.88;30.13;34.74;;
71020;Laerm;58902;51.436;5.980;2023-06-22T00:54:48;32.35;30.35;39.71;;
71020;Laerm;58902;51.436;5.980;2023-06-22T00:55:01;32.41;30.20;37.98;;
71020;Laerm;58902;51.436;5.980;2023-06-22T00:55:12;32.13;30.55;36.57;;
71020;Laerm;58902;51.436;5.980;2023-06-22T00:55:23;31.84;30.11;36.97;;
71020;Laerm;58902;51.436;5.980;2023-06-22T00:55:41;31.61;30.07;34.24;;
71020;Laerm;58902;51.436;5.980;2023-06-22T00:55:53;31.52;29.59;34.10;;
71020;Laerm;58902;51.436;5.980;2023-06-22T00:56:04;31.71;30.01;37.90;;
71020;Laerm;58902;51.436;5.980;2023-06-22T00:56:15;31.95;29.86;38.05;;
71020;Laerm;58902;51.436;5.980;2023-06-22T00:56:32;32.72;30.16;37.48;;
71020;Laerm;58902;51.436;5.980;2023-06-22T00:56:42;33.96;31.22;38.00;;
71020;Laerm;58902;51.436;5.980;2023-06-22T00:56:54;34.04;31.60;37.78;;
71020;Laerm;58902;51.436;5.980;2023-06-22T00:57:06;33.55;31.00;37.71;;
71020;Laerm;58902;51.436;5.980;2023-06-22T00:57:21;32.83;30.26;37.52;;
71020;Laerm;58902;51.436;5.980;2023-06-22T00:57:32;32.70;29.96;36.46;;
71020;Laerm;58902;51.436;5.980;2023-06-22T00:57:42;31.97;29.86;35.15;;
71020;Laerm;58902;51.436;5.980;2023-06-22T00:57:53;32.13;29.68;36.41;;
71020;Laerm;58902;51.436;5.980;2023-06-22T00:58:07;31.35;29.39;34.25;;
71020;Laerm;58902;51.436;5.980;2023-06-22T00:58:23;34.02;29.11;56.52;;
71020;Laerm;58902;51.436;5.980;2023-06-22T00:58:36;32.41;30.05;34.48;;
71020;Laerm;58902;51.436;5.980;2023-06-22T00:58:46;32.85;31.35;36.01;;
71020;Laerm;58902;51.436;5.980;2023-06-22T00:58:58;31.70;29.25;33.73;;
71020;Laerm;58902;51.436;5.980;2023-06-22T00:59:09;31.41;30.04;34.24;;
71020;Laerm;58902;51.436;5.980;2023-06-22T00:59:23;31.25;29.29;33.76;;
71020;Laerm;58902;51.436;5.980;2023-06-22T00:59:33;31.45;29.98;32.87;;
71020;Laerm;58902;51.436;5.980;2023-06-22T00:59:44;31.57;30.28;33.12;;
71020;Laerm;58902;51.436;5.980;2023-06-22T00:59:55;31.26;29.38;33.04;;
71020;Laerm;58902;51.436;5.980;2023-06-22T01:00:06;37.39;30.03;53.82;;
71020;Laerm;58902;51.436;5.980;2023-06-22T01:00:18;39.98;30.93;53.16;;
71020;Laerm;58902;51.436;5.980;2023-06-22T01:00:29;34.67;31.37;39.71;;
71020;Laerm;58902;51.436;5.980;2023-06-22T01:00:40;33.83;31.44;38.07;;
71020;Laerm;58902;51.436;5.980;2023-06-22T01:00:51;33.54;30.70;43.50;;
71020;Laerm;58902;51.436;5.980;2023-06-22T01:01:01;35.70;30.69;39.92;;
71020;Laerm;58902;51.436;5.980;2023-06-22T01:01:12;38.12;36.91;39.45;;
71020;Laerm;58902;51.436;5.980;2023-06-22T01:01:24;36.55;31.35;39.15;;
71020;Laerm;58902;51.436;5.980;2023-06-22T01:01:34;32.47;30.74;34.48;;
71020;Laerm;58902;51.436;5.980;2023-06-22T01:01:47;32.50;31.14;34.45;;